createdAt,value
2019-03-30T00:01:50.343Z,5.90
2019-03-30T00:04:18.748Z,5.90
2019-03-30T00:06:47.194Z,6.00
2019-03-30T00:09:15.546Z,5.90
2019-03-30T00:11:43.955Z,6.00
2019-03-30T00:14:12.365Z,6.10
2019-03-30T00:16:40.778Z,6.00
2019-03-30T00:19:09.161Z,6.00
2019-03-30T00:21:37.655Z,5.90
2019-03-30T00:24:06.024Z,5.80
2019-03-30T00:26:34.441Z,5.80
2019-03-30T00:29:02.841Z,5.70
2019-03-30T00:31:31.266Z,5.80
2019-03-30T00:33:59.661Z,5.60
2019-03-30T00:36:28.049Z,5.60
2019-03-30T00:38:56.436Z,5.70
2019-03-30T00:41:24.809Z,5.60
2019-03-30T00:43:53.169Z,5.60
2019-03-30T00:46:21.601Z,5.50
2019-03-30T00:48:49.982Z,5.50
2019-03-30T00:51:18.364Z,5.50
2019-03-30T00:53:47.231Z,5.70
2019-03-30T00:56:15.726Z,5.70
2019-03-30T00:58:44.119Z,5.70
2019-03-30T01:01:12.765Z,5.90
2019-03-30T01:03:41.313Z,5.90
2019-03-30T01:06:09.901Z,5.90
2019-03-30T01:08:38.265Z,6.00
2019-03-30T01:11:06.650Z,6.00
2019-03-30T01:13:35.134Z,5.90
2019-03-30T01:16:03.542Z,5.90
2019-03-30T01:18:32.103Z,5.80
2019-03-30T01:21:00.514Z,5.80
2019-03-30T01:23:28.931Z,5.90
2019-03-30T01:25:57.331Z,5.90
2019-03-30T01:28:25.770Z,5.80
2019-03-30T01:30:54.298Z,5.70
2019-03-30T01:33:22.698Z,5.60
2019-03-30T01:35:51.083Z,5.50
2019-03-30T01:38:19.503Z,5.60
2019-03-30T01:40:47.915Z,5.60
2019-03-30T01:43:16.366Z,5.60
2019-03-30T01:45:44.777Z,5.60
2019-03-30T01:48:13.259Z,5.60
2019-03-30T01:50:41.699Z,5.70
2019-03-30T01:53:10.128Z,5.60
2019-03-30T01:55:38.520Z,5.60
2019-03-30T01:58:06.940Z,5.60
2019-03-30T02:00:35.345Z,5.50
2019-03-30T02:03:03.776Z,5.50
2019-03-30T02:05:32.151Z,5.40
2019-03-30T02:08:00.539Z,5.40
2019-03-30T02:10:42.569Z,5.50
2019-03-30T02:13:10.972Z,5.40
2019-03-30T02:15:39.353Z,5.50
2019-03-30T02:18:08.025Z,5.50
2019-03-30T02:20:38.742Z,5.50
2019-03-30T02:23:07.346Z,5.40
2019-03-30T02:25:35.741Z,5.40
2019-03-30T02:28:06.912Z,5.30
2019-03-30T02:30:34.536Z,5.30
2019-03-30T02:33:02.963Z,5.20
2019-03-30T02:35:31.337Z,5.20
2019-03-30T02:37:59.754Z,5.20
2019-03-30T02:40:28.252Z,5.20
2019-03-30T02:42:56.626Z,5.20
2019-03-30T02:45:25.049Z,5.20
2019-03-30T02:47:53.509Z,5.20
2019-03-30T02:50:21.885Z,5.20
2019-03-30T02:52:50.397Z,5.20
2019-03-30T02:55:18.932Z,5.20
2019-03-30T02:57:47.349Z,5.20
2019-03-30T03:00:16.512Z,5.10
2019-03-30T03:02:44.992Z,5.10
2019-03-30T03:05:13.401Z,5.10
2019-03-30T03:07:41.822Z,5.10
2019-03-30T03:10:10.311Z,5.10
2019-03-30T03:12:38.816Z,5.10
2019-03-30T03:15:07.310Z,5.00
2019-03-30T03:17:35.691Z,5.00
2019-03-30T03:20:05.575Z,5.00
2019-03-30T03:22:33.986Z,5.00
2019-03-30T03:25:02.426Z,4.90
2019-03-30T03:27:30.927Z,5.00
2019-03-30T03:29:59.328Z,5.00
2019-03-30T03:32:27.772Z,5.00
2019-03-30T03:34:56.169Z,4.90
2019-03-30T03:37:43.588Z,4.90
2019-03-30T03:39:54.645Z,4.90
2019-03-30T03:42:23.122Z,4.90
2019-03-30T03:44:51.506Z,4.90
2019-03-30T03:47:19.890Z,4.90
2019-03-30T03:49:48.261Z,4.90
2019-03-30T03:52:16.599Z,4.80
2019-03-30T03:54:45.015Z,4.80
2019-03-30T03:57:13.724Z,4.80
2019-03-30T03:59:42.071Z,4.80
2019-03-30T04:02:11.190Z,4.80
2019-03-30T04:04:39.633Z,4.80
2019-03-30T04:07:08.034Z,4.80
2019-03-30T04:09:36.413Z,4.90
2019-03-30T04:12:06.870Z,4.90
2019-03-30T04:14:35.550Z,4.90
2019-03-30T04:17:03.979Z,4.90
2019-03-30T04:19:32.521Z,4.90
2019-03-30T04:22:00.992Z,4.80
2019-03-30T04:24:29.403Z,4.90
2019-03-30T04:26:57.806Z,5.00
2019-03-30T04:29:26.189Z,4.90
2019-03-30T04:31:54.744Z,5.00
2019-03-30T04:34:23.079Z,5.00
2019-03-30T04:36:51.417Z,5.00
2019-03-30T04:39:19.834Z,5.10
2019-03-30T04:41:48.188Z,5.10
2019-03-30T04:44:16.578Z,5.20
2019-03-30T04:46:44.978Z,5.20
2019-03-30T04:49:13.417Z,5.30
2019-03-30T04:51:41.800Z,5.30
2019-03-30T04:54:10.205Z,5.30
2019-03-30T04:56:38.618Z,5.40
2019-03-30T04:59:07.048Z,5.70
2019-03-30T05:01:35.590Z,6.00
2019-03-30T05:04:03.938Z,6.20
2019-03-30T05:06:32.350Z,6.80
2019-03-30T05:09:00.871Z,7.20
2019-03-30T05:11:29.227Z,7.50
2019-03-30T05:13:57.569Z,7.80
2019-03-30T05:16:27.807Z,8.00
2019-03-30T05:18:56.194Z,8.40
2019-03-30T05:21:24.592Z,8.40
2019-03-30T05:23:53.004Z,8.70
2019-03-30T05:26:21.418Z,9.50
2019-03-30T05:28:49.806Z,10.40
2019-03-30T05:31:18.197Z,11.50
2019-03-30T05:33:46.626Z,10.90
2019-03-30T05:36:15.036Z,10.90
2019-03-30T05:38:43.481Z,10.70
2019-03-30T05:41:11.885Z,10.70
2019-03-30T05:43:40.261Z,10.30
2019-03-30T05:46:08.673Z,9.90
2019-03-30T05:48:37.088Z,10.10
2019-03-30T05:51:05.502Z,10.30
2019-03-30T05:53:33.970Z,10.50
2019-03-30T05:56:02.354Z,10.20
2019-03-30T05:58:30.794Z,9.80
2019-03-30T06:00:59.190Z,9.60
2019-03-30T06:03:27.687Z,9.80
2019-03-30T06:05:56.087Z,10.00
2019-03-30T06:08:24.475Z,10.10
2019-03-30T06:10:52.900Z,10.00
2019-03-30T06:13:21.271Z,10.40
2019-03-30T06:15:49.679Z,11.40
2019-03-30T06:18:18.089Z,11.60
2019-03-30T06:20:46.503Z,12.20
2019-03-30T06:23:14.914Z,11.60
2019-03-30T06:25:43.257Z,11.30
2019-03-30T06:28:11.779Z,11.50
2019-03-30T06:30:40.188Z,11.70
2019-03-30T06:33:08.585Z,12.70
2019-03-30T06:35:37.011Z,13.40
2019-03-30T06:38:05.439Z,13.10
2019-03-30T06:40:33.817Z,12.70
2019-03-30T06:43:02.223Z,12.80
2019-03-30T06:45:30.590Z,14.30
2019-03-30T06:47:58.976Z,16.10
2019-03-30T06:50:27.500Z,17.90
2019-03-30T06:52:58.664Z,18.80
2019-03-30T06:55:25.988Z,19.00
2019-03-30T06:57:54.504Z,18.90
2019-03-30T07:00:31.344Z,18.50
2019-03-30T07:03:00.955Z,19.10
2019-03-30T07:05:29.470Z,19.60
2019-03-30T07:07:57.952Z,20.40
2019-03-30T07:10:26.331Z,18.10
2019-03-30T07:12:54.775Z,18.80
2019-03-30T07:15:23.236Z,18.40
2019-03-30T07:17:51.630Z,19.60
2019-03-30T07:20:27.549Z,17.70
2019-03-30T07:22:56.187Z,18.70
2019-03-30T07:25:25.158Z,19.80
2019-03-30T07:27:54.506Z,19.40
2019-03-30T07:30:22.886Z,20.80
2019-03-30T07:32:51.335Z,20.80
2019-03-30T07:35:19.764Z,21.40
2019-03-30T07:37:48.138Z,21.20
2019-03-30T07:40:16.570Z,21.80
2019-03-30T07:42:45.004Z,21.20
2019-03-30T07:45:13.373Z,20.70
2019-03-30T07:47:41.757Z,21.10
2019-03-30T07:50:10.509Z,22.30
2019-03-30T07:52:38.916Z,22.50
2019-03-30T07:55:07.324Z,23.70
2019-03-30T07:57:35.721Z,22.80
2019-03-30T08:00:07.233Z,22.70
2019-03-30T08:02:35.623Z,22.00
2019-03-30T08:05:06.250Z,21.00
2019-03-30T08:07:34.843Z,20.70
2019-03-30T08:10:04.087Z,19.50
2019-03-30T08:12:31.824Z,19.60
2019-03-30T08:15:00.370Z,19.70
2019-03-30T08:17:28.777Z,21.90
2019-03-30T08:19:57.170Z,21.60
2019-03-30T08:22:25.598Z,21.60
2019-03-30T08:24:54.006Z,18.90
2019-03-30T08:27:22.412Z,18.90
2019-03-30T08:29:50.820Z,19.70
2019-03-30T08:32:19.230Z,20.50
2019-03-30T08:34:47.665Z,19.70
2019-03-30T08:37:16.042Z,20.30
2019-03-30T08:39:44.431Z,21.10
2019-03-30T08:42:12.999Z,22.40
2019-03-30T08:44:41.402Z,23.40
2019-03-30T08:47:09.780Z,20.50
2019-03-30T08:49:38.198Z,20.10
2019-03-30T08:52:06.641Z,19.60
2019-03-30T08:54:35.005Z,20.50
2019-03-30T08:57:03.412Z,22.40
2019-03-30T08:59:31.850Z,23.70
2019-03-30T09:02:00.352Z,23.50
2019-03-30T09:04:28.814Z,25.10
2019-03-30T09:06:57.238Z,24.20
2019-03-30T09:09:25.642Z,23.90
2019-03-30T09:11:54.022Z,25.10
2019-03-30T09:14:22.401Z,24.20
2019-03-30T09:16:50.915Z,24.40
2019-03-30T09:19:19.395Z,23.60
2019-03-30T09:21:47.789Z,22.00
2019-03-30T09:24:16.212Z,22.10
2019-03-30T09:26:44.585Z,22.30
2019-03-30T09:29:13.003Z,23.40
2019-03-30T09:31:41.448Z,23.20
2019-03-30T09:34:09.877Z,24.10
2019-03-30T09:36:38.387Z,24.00
2019-03-30T09:39:06.855Z,22.20
2019-03-30T09:41:35.275Z,22.50
2019-03-30T09:44:03.697Z,23.00
2019-03-30T09:46:32.175Z,25.00
2019-03-30T09:49:00.665Z,24.40
2019-03-30T09:51:29.095Z,24.90
2019-03-30T09:53:57.624Z,22.50
2019-03-30T09:56:25.994Z,23.30
2019-03-30T09:58:54.408Z,23.80
2019-03-30T10:01:22.818Z,22.90
2019-03-30T10:03:51.226Z,23.40
2019-03-30T10:06:19.645Z,23.90
2019-03-30T10:08:48.053Z,23.20
2019-03-30T10:11:16.452Z,21.80
2019-03-30T10:13:44.834Z,20.90
2019-03-30T10:16:13.207Z,20.10
2019-03-30T10:18:41.568Z,17.20
2019-03-30T10:21:09.978Z,16.90
2019-03-30T10:23:38.462Z,17.10
2019-03-30T10:26:06.861Z,16.10
2019-03-30T10:28:35.278Z,15.50
2019-03-30T10:31:03.737Z,15.40
2019-03-30T10:33:32.198Z,15.20
2019-03-30T10:36:00.642Z,15.20
2019-03-30T10:38:29.014Z,15.40
2019-03-30T10:40:57.465Z,15.40
2019-03-30T10:43:25.873Z,15.40
2019-03-30T10:45:54.348Z,15.00
2019-03-30T10:48:22.721Z,14.80
2019-03-30T10:50:51.197Z,14.60
2019-03-30T10:53:19.578Z,14.80
2019-03-30T10:55:48.019Z,14.60
2019-03-30T10:58:16.513Z,14.90
2019-03-30T11:00:44.896Z,14.90
2019-03-30T11:03:13.362Z,14.90
2019-03-30T11:05:41.754Z,14.90
2019-03-30T11:08:10.142Z,15.00
2019-03-30T11:10:38.559Z,15.10
2019-03-30T11:13:06.961Z,15.10
2019-03-30T11:15:35.348Z,15.10
2019-03-30T11:18:03.850Z,15.00
2019-03-30T11:20:32.300Z,15.00
2019-03-30T11:23:00.734Z,14.90
2019-03-30T11:25:29.111Z,14.70
2019-03-30T11:27:57.549Z,14.60
2019-03-30T11:30:25.986Z,14.60
2019-03-30T11:32:54.358Z,14.60
2019-03-30T11:35:22.763Z,14.40
2019-03-30T11:37:51.166Z,14.70
2019-03-30T11:40:19.576Z,14.50
2019-03-30T11:42:47.982Z,14.60
2019-03-30T11:45:16.526Z,14.70
2019-03-30T11:47:44.896Z,14.60
2019-03-30T11:50:13.278Z,14.60
2019-03-30T11:52:41.697Z,14.60
2019-03-30T11:55:21.106Z,14.50
2019-03-30T11:57:40.135Z,14.40
2019-03-30T12:00:08.575Z,14.40
2019-03-30T12:02:36.986Z,14.50
2019-03-30T12:05:07.338Z,14.60
2019-03-30T12:07:35.784Z,14.60
2019-03-30T12:10:05.618Z,14.50
2019-03-30T12:12:37.181Z,14.40
2019-03-30T12:15:06.206Z,14.40
2019-03-30T12:17:34.638Z,14.30
2019-03-30T12:20:03.618Z,14.00
2019-03-30T12:22:32.030Z,14.00
2019-03-30T12:25:00.446Z,14.20
2019-03-30T12:27:28.859Z,14.20
2019-03-30T12:29:57.270Z,14.20
2019-03-30T12:32:25.748Z,14.20
2019-03-30T12:34:54.138Z,14.30
2019-03-30T12:37:22.529Z,14.10
2019-03-30T12:39:50.948Z,13.90
2019-03-30T12:42:19.291Z,14.10
2019-03-30T12:44:47.641Z,14.00
2019-03-30T12:47:16.072Z,14.20
2019-03-30T12:49:45.421Z,14.30
2019-03-30T12:52:13.236Z,14.10
2019-03-30T12:54:41.628Z,14.00
2019-03-30T12:57:10.128Z,14.00
2019-03-30T12:59:38.532Z,14.00
2019-03-30T13:02:06.940Z,14.00
2019-03-30T13:04:35.465Z,14.00
2019-03-30T13:07:03.843Z,13.90
2019-03-30T13:09:34.819Z,13.80
2019-03-30T13:12:02.346Z,13.90
2019-03-30T13:14:30.754Z,13.90
2019-03-30T13:16:59.173Z,13.80
2019-03-30T13:19:27.547Z,13.80
2019-03-30T13:21:55.988Z,13.80
2019-03-30T13:24:24.394Z,13.80
2019-03-30T13:26:52.834Z,13.80
2019-03-30T13:29:21.192Z,13.80
2019-03-30T13:31:49.537Z,13.90
2019-03-30T13:34:17.957Z,14.00
2019-03-30T13:36:46.414Z,14.00
2019-03-30T13:39:14.769Z,13.90
2019-03-30T13:41:43.174Z,13.90
2019-03-30T13:44:11.599Z,13.90
2019-03-30T13:46:40.084Z,13.90
2019-03-30T13:49:08.465Z,14.00
2019-03-30T13:51:36.886Z,14.00
2019-03-30T13:54:05.279Z,13.90
2019-03-30T13:56:33.678Z,13.90
2019-03-30T13:59:02.152Z,13.90
2019-03-30T14:01:30.556Z,13.90
2019-03-30T14:03:58.969Z,13.90
2019-03-30T14:06:27.374Z,13.90
2019-03-30T14:08:55.738Z,14.00
2019-03-30T14:11:24.167Z,14.10
2019-03-30T14:13:52.598Z,14.00
2019-03-30T14:16:21.027Z,13.90
2019-03-30T14:18:49.430Z,13.80
2019-03-30T14:21:17.810Z,13.70
2019-03-30T14:23:46.223Z,13.70
2019-03-30T14:26:14.611Z,13.80
2019-03-30T14:28:43.031Z,13.80
2019-03-30T14:31:11.435Z,13.60
2019-03-30T14:33:39.848Z,13.60
2019-03-30T14:36:08.261Z,13.50
2019-03-30T14:38:36.639Z,13.60
2019-03-30T14:41:05.073Z,13.60
2019-03-30T14:43:33.481Z,13.60
2019-03-30T14:46:01.862Z,13.50
2019-03-30T14:48:30.242Z,13.50
2019-03-30T14:50:58.589Z,13.50
2019-03-30T14:53:27.082Z,13.50
2019-03-30T14:55:55.445Z,13.50
2019-03-30T14:58:23.859Z,13.50
2019-03-30T15:00:52.291Z,13.40
2019-03-30T15:03:20.676Z,13.40
2019-03-30T15:05:49.091Z,13.40
2019-03-30T15:08:17.527Z,13.40
2019-03-30T15:10:45.929Z,13.30
2019-03-30T15:13:14.376Z,13.20
2019-03-30T15:15:42.841Z,13.10
2019-03-30T15:18:11.198Z,13.10
2019-03-30T15:20:39.601Z,13.00
2019-03-30T15:23:07.981Z,13.00
2019-03-30T15:25:36.384Z,12.90
2019-03-30T15:28:04.790Z,12.90
2019-03-30T15:30:33.180Z,12.80
2019-03-30T15:33:03.395Z,12.80
2019-03-30T15:35:31.620Z,12.70
2019-03-30T15:38:00.014Z,12.60
2019-03-30T15:40:28.438Z,12.60
2019-03-30T15:42:56.845Z,12.50
2019-03-30T15:45:25.317Z,12.60
2019-03-30T15:47:53.731Z,12.50
2019-03-30T15:50:22.167Z,12.50
2019-03-30T15:52:50.565Z,12.30
2019-03-30T15:55:19.119Z,12.30
2019-03-30T15:57:47.536Z,12.30
2019-03-30T16:00:16.205Z,12.20
2019-03-30T16:02:44.594Z,12.10
2019-03-30T16:05:15.469Z,12.00
2019-03-30T16:07:43.060Z,12.00
2019-03-30T16:10:11.446Z,12.00
2019-03-30T16:12:39.866Z,11.90
2019-03-30T16:15:08.788Z,11.80
2019-03-30T16:17:37.175Z,11.80
2019-03-30T16:20:07.008Z,11.70
2019-03-30T16:22:35.490Z,11.60
2019-03-30T16:25:04.958Z,11.60
2019-03-30T16:27:33.366Z,11.50
2019-03-30T16:30:01.761Z,11.50
2019-03-30T16:32:30.171Z,11.50
2019-03-30T16:34:58.582Z,11.40
2019-03-30T16:37:26.997Z,11.20
2019-03-30T16:39:55.369Z,11.20
2019-03-30T16:42:23.795Z,11.10
2019-03-30T16:44:52.174Z,11.00
2019-03-30T16:47:20.594Z,11.00
2019-03-30T16:49:49.004Z,10.90
2019-03-30T16:52:17.422Z,10.80
2019-03-30T16:54:45.840Z,10.70
2019-03-30T16:57:14.250Z,10.70
2019-03-30T16:59:42.676Z,10.70
2019-03-30T17:02:11.115Z,10.60
2019-03-30T17:04:39.481Z,10.50
2019-03-30T17:07:07.930Z,10.50
2019-03-30T17:09:36.362Z,10.40
2019-03-30T17:12:04.741Z,10.30
2019-03-30T17:14:33.168Z,10.30
2019-03-30T17:17:01.549Z,10.20
2019-03-30T17:19:29.969Z,10.20
2019-03-30T17:21:58.377Z,10.20
2019-03-30T17:24:26.765Z,10.10
2019-03-30T17:26:55.183Z,10.00
2019-03-30T17:29:23.586Z,9.80
2019-03-30T17:31:52.028Z,9.80
2019-03-30T17:34:20.416Z,9.80
2019-03-30T17:36:48.792Z,9.70
2019-03-30T17:39:17.221Z,9.60
2019-03-30T17:41:45.626Z,9.50
2019-03-30T17:44:14.029Z,9.50
2019-03-30T17:46:42.445Z,9.40
2019-03-30T17:49:10.825Z,9.40
2019-03-30T17:51:39.314Z,9.40
2019-03-30T17:54:07.693Z,9.40
2019-03-30T17:56:36.110Z,9.30
2019-03-30T17:59:04.482Z,9.20
2019-03-30T18:01:32.891Z,9.10
2019-03-30T18:04:01.281Z,9.10
2019-03-30T18:06:30.807Z,9.10
2019-03-30T18:08:59.218Z,9.00
2019-03-30T18:11:27.562Z,9.00
2019-03-30T18:13:55.966Z,9.00
2019-03-30T18:16:24.368Z,8.90
2019-03-30T18:18:52.775Z,8.90
2019-03-30T18:21:21.231Z,8.80
2019-03-30T18:23:49.630Z,8.80
2019-03-30T18:26:18.010Z,8.80
2019-03-30T18:28:46.399Z,8.70
2019-03-30T18:31:14.847Z,8.60
2019-03-30T18:33:43.241Z,8.60
2019-03-30T18:36:12.218Z,8.60
2019-03-30T18:38:40.622Z,8.40
2019-03-30T18:41:09.054Z,8.40
2019-03-30T18:43:37.432Z,8.40
2019-03-30T18:46:05.809Z,8.40
2019-03-30T18:48:34.222Z,8.30
2019-03-30T18:51:02.629Z,8.20
2019-03-30T18:53:31.041Z,8.20
2019-03-30T18:55:59.586Z,8.20
2019-03-30T18:58:40.980Z,8.10
2019-03-30T19:00:57.985Z,8.10
2019-03-30T19:03:26.365Z,8.00
2019-03-30T19:05:54.776Z,8.00
2019-03-30T19:08:23.156Z,7.90
2019-03-30T19:10:51.653Z,7.90
2019-03-30T19:13:20.063Z,7.90
2019-03-30T19:15:48.504Z,7.80
2019-03-30T19:18:16.877Z,7.80
2019-03-30T19:20:45.286Z,7.80
2019-03-30T19:23:13.748Z,7.70
2019-03-30T19:25:42.250Z,7.70
2019-03-30T19:28:10.652Z,7.70
2019-03-30T19:30:41.994Z,7.70
2019-03-30T19:33:09.101Z,7.70
2019-03-30T19:35:37.510Z,7.60
2019-03-30T19:38:05.885Z,7.60
2019-03-30T19:40:34.356Z,7.50
2019-03-30T19:43:02.842Z,7.40
2019-03-30T19:45:31.194Z,7.40
2019-03-30T19:47:59.578Z,7.50
2019-03-30T19:50:28.052Z,7.50
2019-03-30T19:52:56.467Z,7.40
2019-03-30T19:55:24.867Z,7.30
2019-03-30T19:57:53.270Z,7.30
2019-03-30T20:00:21.649Z,7.30
2019-03-30T20:02:50.084Z,7.30
2019-03-30T20:05:18.490Z,7.30
2019-03-30T20:07:46.870Z,7.20
2019-03-30T20:10:15.307Z,7.20
2019-03-30T20:12:43.709Z,7.20
2019-03-30T20:15:12.123Z,7.10
2019-03-30T20:17:40.541Z,7.10
2019-03-30T20:20:09.313Z,7.10
2019-03-30T20:22:37.718Z,7.10
2019-03-30T20:25:07.863Z,7.10
2019-03-30T20:27:36.409Z,7.00
2019-03-30T20:30:09.099Z,7.00
2019-03-30T20:32:37.892Z,7.00
2019-03-30T20:35:08.085Z,7.00
2019-03-30T20:37:36.450Z,7.00
2019-03-30T20:40:07.018Z,6.90
2019-03-30T20:42:35.420Z,6.90
2019-03-30T20:45:04.967Z,6.90
2019-03-30T20:47:33.345Z,6.90
2019-03-30T20:50:01.931Z,6.90
2019-03-30T20:52:30.446Z,6.80
2019-03-30T20:54:58.869Z,6.90
2019-03-30T20:57:27.236Z,6.80
2019-03-30T20:59:55.791Z,6.80
2019-03-30T21:02:24.158Z,6.80
2019-03-30T21:04:52.569Z,6.70
2019-03-30T21:07:21.027Z,6.80
2019-03-30T21:09:49.615Z,6.70
2019-03-30T21:12:18.014Z,6.70
2019-03-30T21:14:46.391Z,6.60
2019-03-30T21:17:14.830Z,6.70
2019-03-30T21:19:43.227Z,6.60
2019-03-30T21:22:11.837Z,6.60
2019-03-30T21:24:40.246Z,6.60
2019-03-30T21:27:08.691Z,6.60
2019-03-30T21:29:37.118Z,6.50
2019-03-30T21:32:05.462Z,6.40
2019-03-30T21:34:34.041Z,6.50
2019-03-30T21:37:02.406Z,6.60
2019-03-30T21:39:30.791Z,6.50
2019-03-30T21:41:59.198Z,6.50
2019-03-30T21:44:27.733Z,6.50
2019-03-30T21:46:56.142Z,6.50
2019-03-30T21:49:24.619Z,6.50
2019-03-30T21:51:52.955Z,6.50
2019-03-30T21:54:21.360Z,6.40
2019-03-30T21:56:49.833Z,6.40
2019-03-30T21:59:18.235Z,6.40
2019-03-30T22:01:46.734Z,6.40
2019-03-30T22:04:15.174Z,6.30
2019-03-30T22:06:43.587Z,6.30
2019-03-30T22:09:12.690Z,6.30
2019-03-30T22:11:41.070Z,6.30
2019-03-30T22:14:09.457Z,6.30
2019-03-30T22:16:37.845Z,6.20
2019-03-30T22:19:06.227Z,6.20
2019-03-30T22:21:34.686Z,6.20
2019-03-30T22:24:03.094Z,6.20
2019-03-30T22:26:31.704Z,6.10
2019-03-30T22:29:00.078Z,6.20
2019-03-30T22:31:28.563Z,6.20
2019-03-30T22:33:56.969Z,6.20
2019-03-30T22:36:25.355Z,6.20
2019-03-30T22:38:53.789Z,6.10
2019-03-30T22:41:22.166Z,6.10
2019-03-30T22:43:50.549Z,6.10
2019-03-30T22:46:18.997Z,6.10
2019-03-30T22:48:47.410Z,6.00
2019-03-30T22:51:15.893Z,6.00
2019-03-30T22:53:44.370Z,6.00
2019-03-30T22:56:12.757Z,6.00
2019-03-30T22:58:41.177Z,6.00
2019-03-30T23:01:11.235Z,6.00
2019-03-30T23:03:39.744Z,5.90
2019-03-30T23:06:08.118Z,5.90
2019-03-30T23:08:36.595Z,5.90
2019-03-30T23:11:05.077Z,5.90
2019-03-30T23:13:33.554Z,5.90
2019-03-30T23:16:02.033Z,6.00
2019-03-30T23:18:30.519Z,6.00
2019-03-30T23:20:58.889Z,5.90
2019-03-30T23:23:27.304Z,5.90
2019-03-30T23:25:55.738Z,5.90
2019-03-30T23:28:24.138Z,5.90
2019-03-30T23:30:54.435Z,5.90
2019-03-30T23:33:22.676Z,5.80
2019-03-30T23:35:51.120Z,5.80
2019-03-30T23:38:19.566Z,5.80
2019-03-30T23:40:47.940Z,5.80
2019-03-30T23:43:16.362Z,5.80
2019-03-30T23:45:44.935Z,5.80
2019-03-30T23:48:13.300Z,5.80
2019-03-30T23:50:41.713Z,5.80
2019-03-30T23:53:10.171Z,5.80
2019-03-30T23:55:38.566Z,5.70
2019-03-30T23:58:07.013Z,5.70
